Goldboro, Canada
Current Conditions -  °F | °C
As of 6:15 AM on Monday 26 Jan 2015 (Local Time) from CYPD Reporting Station
Light Snow Light Snow  
Wind Chill: -6°   Ceiling: 2300
Heat Index: 12°   Visibility: 5mi
Dew Point:   Wind: 21mph
Humidity: 79%   Direction: 260°W
Pressure: 29.86"   Gusts: 31mph
Location:  45.18°N, 61.65°W
Report Text: CYPD 261015Z AUTO 26018G27KT 5SM -SN OVC023 M11/M14 A2986 RMK PRESRR SLP117
Loading
Personal Weather Stations






























Interactive Weather Map New forecast layout! Learn more

10-Day Weather Forecast

Advertisements
Track Severe Weather on mobile